createdAt,value
2019-02-27T00:00:47.690Z,102829.80
2019-02-27T00:02:49.102Z,102831.28
2019-02-27T00:04:50.473Z,102836.27
2019-02-27T00:06:52.045Z,102832.22
2019-02-27T00:08:53.545Z,102831.22
2019-02-27T00:10:54.958Z,102832.42
2019-02-27T00:12:56.347Z,102826.76
2019-02-27T00:14:57.750Z,102831.02
2019-02-27T00:16:59.127Z,102837.63
2019-02-27T00:19:00.542Z,102840.80
2019-02-27T00:21:01.909Z,102837.13
2019-02-27T00:23:03.346Z,102836.67
2019-02-27T00:25:04.973Z,102832.27
2019-02-27T00:27:06.422Z,102834.14
2019-02-27T00:29:07.832Z,102826.50
2019-02-27T00:31:11.553Z,102819.20
2019-02-27T00:33:12.580Z,102820.48
2019-02-27T00:35:14.149Z,102814.22
2019-02-27T00:37:18.727Z,102813.30
2019-02-27T00:39:18.818Z,102813.86
2019-02-27T00:41:20.214Z,102814.87
2019-02-27T00:43:21.601Z,102809.61
2019-02-27T00:45:23.240Z,102806.63
2019-02-27T00:47:24.664Z,102806.65
2019-02-27T00:49:26.047Z,102805.00
2019-02-27T00:51:27.428Z,102805.64
2019-02-27T00:53:28.861Z,102805.45
2019-02-27T00:55:30.316Z,102803.97
2019-02-27T00:57:31.661Z,102811.62
2019-02-27T00:59:33.674Z,102813.07
2019-02-27T01:01:35.123Z,102814.94
2019-02-27T01:03:36.489Z,102808.73
2019-02-27T01:05:40.933Z,102811.06
2019-02-27T01:07:41.171Z,102805.69
2019-02-27T01:09:42.545Z,102808.33
2019-02-27T01:11:43.932Z,102808.88
2019-02-27T01:13:45.323Z,102800.79
2019-02-27T01:15:46.709Z,102803.78
2019-02-27T01:17:48.124Z,102799.66
2019-02-27T01:19:49.548Z,102798.92
2019-02-27T01:21:50.925Z,102804.27
2019-02-27T01:23:52.313Z,102806.19
2019-02-27T01:25:56.077Z,102806.89
2019-02-27T01:27:57.075Z,102809.02
2019-02-27T01:29:58.460Z,102804.41
2019-02-27T01:31:59.849Z,102801.98
2019-02-27T01:34:01.233Z,102797.39
2019-02-27T01:36:02.937Z,102787.13
2019-02-27T01:38:05.319Z,102790.61
2019-02-27T01:40:11.214Z,102787.64
2019-02-27T01:42:12.588Z,102789.95
2019-02-27T01:44:14.306Z,102791.05
2019-02-27T01:46:15.790Z,102782.53
2019-02-27T01:48:17.183Z,102780.84
2019-02-27T01:50:25.955Z,102781.47
2019-02-27T01:52:27.350Z,102780.15
2019-02-27T01:54:28.755Z,102783.53
2019-02-27T01:56:30.104Z,102778.82
2019-02-27T01:58:31.497Z,102775.06
2019-02-27T02:00:33.381Z,102773.75
2019-02-27T02:02:34.955Z,102766.88
2019-02-27T02:04:38.078Z,102768.61
2019-02-27T02:06:39.424Z,102771.11
2019-02-27T02:08:40.901Z,102766.89
2019-02-27T02:10:42.295Z,102759.32
2019-02-27T02:12:48.186Z,102752.58
2019-02-27T02:15:01.152Z,102750.23
2019-02-27T02:17:26.364Z,102744.61
2019-02-27T02:19:39.493Z,102746.34
2019-02-27T02:22:14.190Z,102748.37
2019-02-27T02:24:45.283Z,102742.64
2019-02-27T02:26:55.202Z,102744.87
2019-02-27T02:29:53.130Z,102740.56
2019-02-27T02:32:06.547Z,102740.41
2019-02-27T02:34:22.050Z,102737.80
2019-02-27T02:37:06.709Z,102734.78
2019-02-27T02:39:27.913Z,102730.84
2019-02-27T02:41:49.974Z,102726.78
2019-02-27T02:44:09.117Z,102720.14
2019-02-27T02:46:45.463Z,102723.74
2019-02-27T02:49:08.707Z,102725.12
2019-02-27T02:51:35.419Z,102724.23
2019-02-27T02:53:51.229Z,102725.06
2019-02-27T02:56:24.003Z,102722.93
2019-02-27T02:58:58.878Z,102711.32
2019-02-27T03:01:15.450Z,102716.82
2019-02-27T03:03:36.154Z,102714.86
2019-02-27T03:05:58.580Z,102713.59
2019-02-27T03:08:09.570Z,102715.31
2019-02-27T03:10:42.872Z,102711.59
2019-02-27T03:13:11.454Z,102705.78
2019-02-27T03:15:30.336Z,102702.98
2019-02-27T03:17:46.497Z,102704.48
2019-02-27T03:20:31.942Z,102703.77
2019-02-27T03:23:15.305Z,102699.54
2019-02-27T03:25:45.620Z,102698.42
2019-02-27T03:28:10.686Z,102694.31
2019-02-27T03:30:37.569Z,102691.00
2019-02-27T03:32:58.794Z,102673.94
2019-02-27T03:35:33.075Z,102694.23
2019-02-27T03:37:40.219Z,102683.80
2019-02-27T03:40:11.931Z,102686.84
2019-02-27T03:42:21.819Z,102684.25
2019-02-27T03:44:29.050Z,102684.48
2019-02-27T03:47:16.607Z,102686.05
2019-02-27T03:49:44.300Z,102693.90
2019-02-27T03:52:16.632Z,102685.99
2019-02-27T03:54:57.021Z,102684.56
2019-02-27T03:57:11.243Z,102685.48
2019-02-27T03:59:27.079Z,102682.55
2019-02-27T04:02:09.187Z,102687.52
2019-02-27T04:04:22.499Z,102686.44
2019-02-27T04:06:53.045Z,102682.70
2019-02-27T04:08:56.081Z,102685.22
2019-02-27T04:10:57.460Z,102681.02
2019-02-27T04:12:58.854Z,102683.09
2019-02-27T04:15:00.397Z,102681.16
2019-02-27T04:17:06.176Z,102680.61
2019-02-27T04:19:05.757Z,102679.07
2019-02-27T04:21:07.465Z,102685.51
2019-02-27T04:23:12.481Z,102675.43
2019-02-27T04:25:12.120Z,102674.37
2019-02-27T04:27:20.053Z,102670.09
2019-02-27T04:29:16.840Z,102674.08
2019-02-27T04:31:18.233Z,102673.03
2019-02-27T04:33:23.269Z,102679.84
2019-02-27T04:35:23.387Z,102675.66
2019-02-27T04:37:24.832Z,102672.74
2019-02-27T04:39:26.442Z,102676.60
2019-02-27T04:41:27.809Z,102674.69
2019-02-27T04:43:31.983Z,102675.55
2019-02-27T04:45:32.461Z,102674.08
2019-02-27T04:47:33.825Z,102655.94
2019-02-27T04:49:37.718Z,102670.08
2019-02-27T04:51:38.575Z,102672.30
2019-02-27T04:53:40.816Z,102669.44
2019-02-27T04:55:42.333Z,102667.45
2019-02-27T04:57:43.750Z,102665.26
2019-02-27T04:59:45.593Z,102662.03
2019-02-27T05:01:47.797Z,102659.05
2019-02-27T05:03:49.208Z,102656.79
2019-02-27T05:05:50.621Z,102657.08
2019-02-27T05:07:54.228Z,102653.45
2019-02-27T05:09:55.365Z,102654.14
2019-02-27T05:11:56.791Z,102661.50
2019-02-27T05:13:58.152Z,102657.34
2019-02-27T05:15:59.517Z,102659.20
2019-02-27T05:18:00.926Z,102652.23
2019-02-27T05:20:05.994Z,102652.28
2019-02-27T05:22:07.354Z,102647.19
2019-02-27T05:24:08.765Z,102644.27
2019-02-27T05:26:10.133Z,102619.02
2019-02-27T05:28:11.526Z,102646.81
2019-02-27T05:30:12.927Z,102653.35
2019-02-27T05:32:14.287Z,102653.55
2019-02-27T05:34:15.629Z,102650.61
2019-02-27T05:36:17.038Z,102642.58
2019-02-27T05:38:18.397Z,102641.25
2019-02-27T05:40:19.776Z,102641.35
2019-02-27T05:42:21.145Z,102645.09
2019-02-27T05:44:22.541Z,102651.34
2019-02-27T05:46:23.894Z,102649.83
2019-02-27T05:48:25.326Z,102651.43
2019-02-27T05:50:26.873Z,102654.08
2019-02-27T05:52:28.221Z,102650.72
2019-02-27T05:54:29.958Z,102644.84
2019-02-27T05:56:33.047Z,102648.22
2019-02-27T05:58:34.413Z,102645.14
2019-02-27T06:00:35.791Z,102638.48
2019-02-27T06:02:37.184Z,102641.51
2019-02-27T06:04:38.543Z,102638.48
2019-02-27T06:06:40.142Z,102641.13
2019-02-27T06:08:41.481Z,102640.88
2019-02-27T06:10:42.819Z,102637.09
2019-02-27T06:12:44.228Z,102637.55
2019-02-27T06:14:45.578Z,102633.85
2019-02-27T06:16:46.919Z,102634.68
2019-02-27T06:18:48.309Z,102629.98
2019-02-27T06:20:49.676Z,102634.41
2019-02-27T06:22:51.064Z,102627.59
2019-02-27T06:24:52.455Z,102628.02
2019-02-27T06:26:53.899Z,102621.78
2019-02-27T06:28:55.291Z,102620.18
2019-02-27T06:30:56.745Z,102622.84
2019-02-27T06:32:58.139Z,102625.84
2019-02-27T06:34:59.991Z,102624.33
2019-02-27T06:37:01.402Z,102622.67
2019-02-27T06:39:05.073Z,102620.73
2019-02-27T06:41:06.751Z,102622.84
2019-02-27T06:43:08.116Z,102615.23
2019-02-27T06:45:13.299Z,102614.44
2019-02-27T06:47:14.687Z,102616.52
2019-02-27T06:49:18.244Z,102613.70
2019-02-27T06:51:19.344Z,102614.95
2019-02-27T06:53:20.678Z,102611.05
2019-02-27T06:55:22.393Z,102612.63
2019-02-27T06:57:23.747Z,102610.23
2019-02-27T06:59:25.687Z,102611.98
2019-02-27T07:01:27.217Z,102606.37
2019-02-27T07:03:29.555Z,102605.25
2019-02-27T07:05:31.821Z,102601.41
2019-02-27T07:07:33.219Z,102604.88
2019-02-27T07:09:34.603Z,102600.09
2019-02-27T07:11:36.046Z,102595.97
2019-02-27T07:13:37.409Z,102594.38
2019-02-27T07:15:38.804Z,102594.31
2019-02-27T07:17:40.153Z,102592.52
2019-02-27T07:19:41.530Z,102588.94
2019-02-27T07:21:42.928Z,102593.84
2019-02-27T07:23:44.393Z,102589.31
2019-02-27T07:25:45.877Z,102588.59
2019-02-27T07:27:47.275Z,102584.66
2019-02-27T07:29:48.682Z,102584.66
2019-02-27T07:31:52.061Z,102578.33
2019-02-27T07:33:53.360Z,102577.78
2019-02-27T07:35:54.722Z,102581.27
2019-02-27T07:37:56.088Z,102578.45
2019-02-27T07:39:57.493Z,102584.23
2019-02-27T07:41:58.939Z,102587.69
2019-02-27T07:44:00.380Z,102578.13
2019-02-27T07:46:01.810Z,102579.83
2019-02-27T07:48:03.193Z,102577.94
2019-02-27T07:50:09.900Z,102580.48
2019-02-27T07:52:11.272Z,102577.16
2019-02-27T07:54:12.638Z,102567.76
2019-02-27T07:56:14.062Z,102573.48
2019-02-27T07:58:15.419Z,102577.08
2019-02-27T08:00:21.307Z,102567.38
2019-02-27T08:02:22.700Z,102575.45
2019-02-27T08:04:24.086Z,102569.78
2019-02-27T08:06:25.467Z,102569.88
2019-02-27T08:08:26.863Z,102572.14
2019-02-27T08:10:28.210Z,102571.84
2019-02-27T08:12:29.604Z,102564.47
2019-02-27T08:14:30.999Z,102563.29
2019-02-27T08:16:32.651Z,102557.25
2019-02-27T08:18:37.650Z,102552.75
2019-02-27T08:20:37.436Z,102554.22
2019-02-27T08:22:38.830Z,102544.97
2019-02-27T08:24:40.232Z,102546.92
2019-02-27T08:26:41.633Z,102541.55
2019-02-27T08:28:42.994Z,102541.55
2019-02-27T08:30:44.355Z,102543.02
2019-02-27T08:32:45.845Z,102544.98
2019-02-27T08:34:47.186Z,102536.60
2019-02-27T08:36:48.542Z,102534.81
2019-02-27T08:38:49.938Z,102539.92
2019-02-27T08:40:51.283Z,102543.45
2019-02-27T08:42:52.639Z,102533.89
2019-02-27T08:44:54.041Z,102527.25
2019-02-27T08:46:55.453Z,102530.53
2019-02-27T08:48:56.819Z,102523.17
2019-02-27T08:50:58.182Z,102520.45
2019-02-27T08:52:59.591Z,102521.14
2019-02-27T08:55:05.430Z,102513.42
2019-02-27T08:57:04.266Z,102518.06
2019-02-27T08:59:06.089Z,102519.41
2019-02-27T09:01:08.940Z,102515.70
2019-02-27T09:03:19.769Z,102512.95
2019-02-27T09:05:13.801Z,102512.45
2019-02-27T09:07:15.172Z,102514.91
2019-02-27T09:09:17.929Z,102506.57
2019-02-27T09:11:19.899Z,102507.16
2019-02-27T09:13:21.336Z,102501.79
2019-02-27T09:15:22.721Z,102496.34
2019-02-27T09:17:26.825Z,102487.37
2019-02-27T09:19:27.725Z,102487.47
2019-02-27T09:21:29.498Z,102484.72
2019-02-27T09:23:31.398Z,102486.87
2019-02-27T09:25:33.203Z,102485.29
2019-02-27T09:27:35.341Z,102480.25
2019-02-27T09:29:37.017Z,102482.94
2019-02-27T09:31:38.570Z,102474.85
2019-02-27T09:33:40.032Z,102468.77
2019-02-27T09:35:41.672Z,102470.08
2019-02-27T09:37:43.051Z,102461.73
2019-02-27T09:39:44.509Z,102456.80
2019-02-27T09:41:46.896Z,102446.85
2019-02-27T09:43:48.592Z,102441.62
2019-02-27T09:45:49.946Z,102440.27
2019-02-27T09:47:51.470Z,102435.08
2019-02-27T09:49:52.838Z,102431.16
2019-02-27T09:51:56.431Z,102425.85
2019-02-27T09:53:57.541Z,102417.61
2019-02-27T09:55:58.900Z,102417.39
2019-02-27T09:58:00.742Z,102414.27
2019-02-27T10:00:07.023Z,102413.09
2019-02-27T10:02:09.007Z,102413.95
2019-02-27T10:04:11.808Z,102413.45
2019-02-27T10:06:13.284Z,102411.84
2019-02-27T10:08:14.800Z,102403.16
2019-02-27T10:10:16.382Z,102405.08
2019-02-27T10:12:17.751Z,102403.94
2019-02-27T10:14:19.198Z,102401.56
2019-02-27T10:16:20.562Z,102405.59
2019-02-27T10:18:22.205Z,102397.94
2019-02-27T10:20:23.749Z,102396.95
2019-02-27T10:22:25.154Z,102390.17
2019-02-27T10:24:26.587Z,102387.09
2019-02-27T10:26:27.953Z,102387.06
2019-02-27T10:28:29.329Z,102384.81
2019-02-27T10:30:30.844Z,102382.48
2019-02-27T10:32:36.424Z,102378.20
2019-02-27T10:34:36.290Z,102378.66
2019-02-27T10:36:39.195Z,102368.64
2019-02-27T10:38:40.719Z,102366.02
2019-02-27T10:40:42.191Z,102362.72
2019-02-27T10:42:43.601Z,102358.34
2019-02-27T10:44:45.006Z,102357.75
2019-02-27T10:46:46.484Z,102353.75
2019-02-27T10:48:47.882Z,102346.23
2019-02-27T10:50:49.278Z,102344.99
2019-02-27T10:52:50.698Z,102342.84
2019-02-27T10:54:52.087Z,102335.96
2019-02-27T10:56:56.387Z,102331.37
2019-02-27T10:58:56.800Z,102327.58
2019-02-27T11:01:01.175Z,102319.61
2019-02-27T11:03:01.441Z,102317.00
2019-02-27T11:05:05.217Z,102315.38
2019-02-27T11:07:06.620Z,102311.58
2019-02-27T11:09:13.709Z,102306.39
2019-02-27T11:11:16.396Z,102306.59
2019-02-27T11:13:18.150Z,102298.55
2019-02-27T11:15:21.440Z,102302.21
2019-02-27T11:17:22.842Z,102291.80
2019-02-27T11:19:24.223Z,102288.54
2019-02-27T11:21:25.648Z,102288.35
2019-02-27T11:23:27.058Z,102282.68
2019-02-27T11:25:30.957Z,102279.89
2019-02-27T11:27:32.341Z,102270.98
2019-02-27T11:29:33.758Z,102268.69
2019-02-27T11:31:35.186Z,102268.03
2019-02-27T11:33:36.679Z,102264.30
2019-02-27T11:35:38.055Z,102254.77
2019-02-27T11:37:39.456Z,102246.65
2019-02-27T11:39:40.872Z,102244.44
2019-02-27T11:41:42.239Z,102243.16
2019-02-27T11:43:43.644Z,102235.72
2019-02-27T11:45:45.017Z,102235.98
2019-02-27T11:47:48.076Z,102226.78
2019-02-27T11:49:49.715Z,102230.63
2019-02-27T11:51:53.234Z,102226.14
2019-02-27T11:53:54.365Z,102218.64
2019-02-27T11:55:56.097Z,102210.95
2019-02-27T11:57:57.474Z,102206.97
2019-02-27T11:59:58.855Z,102199.53
2019-02-27T12:02:00.258Z,102198.64
2019-02-27T12:04:01.705Z,102189.67
2019-02-27T12:06:05.316Z,102188.02
2019-02-27T12:08:06.372Z,102186.63
2019-02-27T12:10:12.747Z,102184.38
2019-02-27T12:12:14.161Z,102174.18
2019-02-27T12:14:15.560Z,102179.91
2019-02-27T12:16:18.544Z,102173.75
2019-02-27T12:18:20.131Z,102169.85
2019-02-27T12:20:22.106Z,102164.31
2019-02-27T12:22:23.460Z,102164.25
2019-02-27T12:24:24.883Z,102162.37
2019-02-27T12:26:26.246Z,102160.86
2019-02-27T12:28:27.620Z,102150.98
2019-02-27T12:30:29.830Z,102144.07
2019-02-27T12:32:31.199Z,102145.73
2019-02-27T12:34:36.768Z,102146.30
2019-02-27T12:36:35.853Z,102134.56
2019-02-27T12:38:39.338Z,102132.78
2019-02-27T12:40:40.522Z,102126.75
2019-02-27T12:42:42.716Z,102114.06
2019-02-27T12:44:44.635Z,102112.84
2019-02-27T12:46:46.006Z,102112.27
2019-02-27T12:48:47.404Z,102107.44
2019-02-27T12:50:48.776Z,102099.34
2019-02-27T12:52:50.191Z,102101.59
2019-02-27T12:54:51.538Z,102098.72
2019-02-27T12:56:52.913Z,102093.87
2019-02-27T12:58:58.345Z,102092.09
2019-02-27T13:00:57.604Z,102090.26
2019-02-27T13:02:59.276Z,102090.80
2019-02-27T13:05:00.886Z,102089.45
2019-02-27T13:07:02.292Z,102087.70
2019-02-27T13:09:04.860Z,102085.13
2019-02-27T13:11:07.923Z,102083.24
2019-02-27T13:13:09.568Z,102083.20
2019-02-27T13:15:17.334Z,102081.70
2019-02-27T13:17:21.415Z,102081.02
2019-02-27T13:19:22.063Z,102080.25
2019-02-27T13:21:23.514Z,102080.06
2019-02-27T13:23:24.915Z,102070.25
2019-02-27T13:25:26.287Z,102064.07
2019-02-27T13:27:27.657Z,102055.64
2019-02-27T13:29:29.064Z,102051.65
2019-02-27T13:31:30.452Z,102049.58
2019-02-27T13:33:32.943Z,102048.49
2019-02-27T13:35:35.488Z,102048.71
2019-02-27T13:37:36.987Z,102046.28
2019-02-27T13:39:38.357Z,102036.78
2019-02-27T13:41:42.371Z,102044.25
2019-02-27T13:43:43.095Z,102038.30
2019-02-27T13:45:47.386Z,102040.00
2019-02-27T13:47:47.866Z,102034.19
2019-02-27T13:49:49.256Z,102037.27
2019-02-27T13:51:50.611Z,102025.27
2019-02-27T13:53:51.986Z,102020.16
2019-02-27T13:55:53.680Z,102010.77
2019-02-27T13:57:58.771Z,102015.05
2019-02-27T13:59:58.471Z,102010.09
2019-02-27T14:02:00.698Z,102002.87
2019-02-27T14:04:03.399Z,101998.12
2019-02-27T14:06:06.270Z,101991.99
2019-02-27T14:08:08.150Z,101984.83
2019-02-27T14:10:17.131Z,101978.47
2019-02-27T14:12:19.719Z,101977.63
2019-02-27T14:14:21.131Z,101979.35
2019-02-27T14:16:22.528Z,101976.05
2019-02-27T14:18:23.919Z,101969.69
2019-02-27T14:20:26.890Z,101963.58
2019-02-27T14:22:28.632Z,101959.69
2019-02-27T14:24:30.052Z,101953.95
2019-02-27T14:26:31.423Z,101947.94
2019-02-27T14:28:32.773Z,101943.50
2019-02-27T14:30:49.878Z,101936.52
2019-02-27T14:32:51.248Z,101936.81
2019-02-27T14:34:52.623Z,101933.06
2019-02-27T14:36:53.997Z,101930.56
2019-02-27T14:38:56.492Z,101931.19
2019-02-27T14:40:58.290Z,101929.31
2019-02-27T14:42:59.774Z,101926.19
2019-02-27T14:45:02.979Z,101919.88
2019-02-27T14:47:04.437Z,101916.91
2019-02-27T14:49:05.816Z,101917.50
2019-02-27T14:51:08.032Z,101913.09
2019-02-27T14:53:10.549Z,101902.08
2019-02-27T14:55:14.316Z,101898.72
2019-02-27T14:57:15.959Z,101902.22
2019-02-27T14:59:18.256Z,101903.92
2019-02-27T15:01:19.679Z,101902.94
2019-02-27T15:03:21.095Z,101903.58
2019-02-27T15:05:22.512Z,101908.28
2019-02-27T15:07:23.885Z,101906.18
2019-02-27T15:09:25.262Z,101904.59
2019-02-27T15:11:26.688Z,101907.07
2019-02-27T15:13:28.908Z,101899.54
2019-02-27T15:15:31.622Z,101896.78
2019-02-27T15:17:33.057Z,101894.20
2019-02-27T15:19:35.505Z,101887.86
2019-02-27T15:21:37.015Z,101875.97
2019-02-27T15:23:38.605Z,101868.73
2019-02-27T15:25:43.072Z,101864.17
2019-02-27T15:27:43.379Z,101864.28
2019-02-27T15:29:44.774Z,101856.22
2019-02-27T15:31:46.134Z,101853.69
2019-02-27T15:33:47.524Z,101844.91
2019-02-27T15:35:48.917Z,101831.95
2019-02-27T15:37:50.452Z,101825.13
2019-02-27T15:39:54.752Z,101825.28
2019-02-27T15:41:55.074Z,101820.28
2019-02-27T15:44:00.226Z,101827.52
2019-02-27T15:45:59.737Z,101813.95
2019-02-27T15:48:06.663Z,101824.89
2019-02-27T15:50:12.514Z,101820.87
2019-02-27T15:52:13.883Z,101819.17
2019-02-27T15:54:15.246Z,101815.12
2019-02-27T15:56:16.649Z,101814.53
2019-02-27T15:58:18.001Z,101808.59
2019-02-27T16:00:23.169Z,101811.66
2019-02-27T16:02:24.618Z,101815.09
2019-02-27T16:04:26.000Z,101815.52
2019-02-27T16:06:27.340Z,101808.38
2019-02-27T16:08:28.823Z,101806.75
2019-02-27T16:10:30.186Z,101797.91
2019-02-27T16:12:31.559Z,101797.63
2019-02-27T16:14:32.934Z,101791.38
2019-02-27T16:16:34.267Z,101787.73
2019-02-27T16:18:36.923Z,101782.61
2019-02-27T16:20:38.932Z,101785.21
2019-02-27T16:22:40.292Z,101778.17
2019-02-27T16:24:43.817Z,101775.33
2019-02-27T16:26:44.981Z,101762.02
2019-02-27T16:28:49.002Z,101765.35
2019-02-27T16:30:49.655Z,101765.87
2019-02-27T16:32:51.136Z,101762.16
2019-02-27T16:34:52.522Z,101762.97
2019-02-27T16:36:53.883Z,101759.56
2019-02-27T16:38:55.232Z,101764.83
2019-02-27T16:40:56.635Z,101760.25
2019-02-27T16:42:58.043Z,101760.72
2019-02-27T16:44:59.400Z,101763.23
2019-02-27T16:47:02.853Z,101768.59
2019-02-27T16:49:09.844Z,101769.60
2019-02-27T16:51:07.591Z,101772.00
2019-02-27T16:53:08.941Z,101769.96
2019-02-27T16:55:14.037Z,101765.05
2019-02-27T16:57:15.431Z,101764.39
2019-02-27T16:59:16.837Z,101763.48
2019-02-27T17:01:18.917Z,101761.40
2019-02-27T17:03:20.917Z,101758.86
2019-02-27T17:05:22.316Z,101755.52
2019-02-27T17:07:26.044Z,101761.02
2019-02-27T17:09:26.937Z,101748.10
2019-02-27T17:11:29.469Z,101746.02
2019-02-27T17:13:31.608Z,101745.75
2019-02-27T17:15:35.776Z,101752.66
2019-02-27T17:17:36.304Z,101747.37
2019-02-27T17:19:37.672Z,101745.20
2019-02-27T17:21:39.071Z,101743.50
2019-02-27T17:23:43.753Z,101739.52
2019-02-27T17:25:43.754Z,101742.36
2019-02-27T17:27:49.830Z,101746.10
2019-02-27T17:29:48.413Z,101741.19
2019-02-27T17:31:55.333Z,101742.21
2019-02-27T17:33:53.097Z,101737.85
2019-02-27T17:35:58.535Z,101732.92
2019-02-27T17:37:58.355Z,101727.50
2019-02-27T17:40:02.284Z,101726.20
2019-02-27T17:42:03.151Z,101724.23
2019-02-27T17:44:05.350Z,101719.31
2019-02-27T17:46:06.874Z,101717.53
2019-02-27T17:48:09.319Z,101713.91
2019-02-27T17:50:14.329Z,101717.34
2019-02-27T17:52:15.725Z,101717.16
2019-02-27T17:54:17.201Z,101712.80
2019-02-27T17:56:18.607Z,101713.09
2019-02-27T17:58:19.975Z,101707.25
2019-02-27T18:00:43.280Z,101710.80
2019-02-27T18:02:44.667Z,101701.61
2019-02-27T18:04:51.064Z,101704.06
2019-02-27T18:06:49.335Z,101705.92
2019-02-27T18:08:52.430Z,101702.09
2019-02-27T18:10:53.959Z,101691.23
2019-02-27T18:12:55.317Z,101688.02
2019-02-27T18:14:56.734Z,101684.35
2019-02-27T18:16:59.197Z,101682.00
2019-02-27T18:19:01.575Z,101682.50
2019-02-27T18:21:03.044Z,101680.96
2019-02-27T18:23:04.455Z,101676.42
2019-02-27T18:25:10.400Z,101668.70
2019-02-27T18:27:11.829Z,101663.49
2019-02-27T18:29:13.197Z,101658.76
2019-02-27T18:31:14.595Z,101663.73
2019-02-27T18:33:17.457Z,101654.27
2019-02-27T18:35:19.367Z,101657.84
2019-02-27T18:37:20.782Z,101657.42
2019-02-27T18:39:22.151Z,101662.95
2019-02-27T18:41:23.518Z,101656.02
2019-02-27T18:43:27.162Z,101653.56
2019-02-27T18:45:28.297Z,101648.48
2019-02-27T18:47:32.140Z,101640.45
2019-02-27T18:49:32.993Z,101641.02
2019-02-27T18:51:34.438Z,101636.95
2019-02-27T18:53:35.796Z,101637.64
2019-02-27T18:55:37.265Z,101633.40
2019-02-27T18:57:39.117Z,101630.80
2019-02-27T18:59:40.660Z,101628.08
2019-02-27T19:01:45.169Z,101625.47
2019-02-27T19:03:45.396Z,101623.56
2019-02-27T19:05:46.993Z,101618.08
2019-02-27T19:07:48.356Z,101616.36
2019-02-27T19:09:49.693Z,101610.89
2019-02-27T19:11:51.605Z,101606.16
2019-02-27T19:13:53.202Z,101604.41
2019-02-27T19:15:54.554Z,101598.47
2019-02-27T19:17:56.197Z,101597.47
2019-02-27T19:19:57.618Z,101592.58
2019-02-27T19:21:59.202Z,101583.13
2019-02-27T19:24:00.558Z,101579.05
2019-02-27T19:26:01.993Z,101578.84
2019-02-27T19:28:03.638Z,101572.34
2019-02-27T19:30:12.358Z,101563.16
2019-02-27T19:32:13.867Z,101560.88
2019-02-27T19:34:15.235Z,101555.14
2019-02-27T19:36:19.463Z,101547.23
2019-02-27T19:38:19.922Z,101555.98
2019-02-27T19:40:23.494Z,101550.66
2019-02-27T19:42:24.940Z,101551.24
2019-02-27T19:44:29.227Z,101538.91
2019-02-27T19:46:29.695Z,101536.75
2019-02-27T19:48:31.142Z,101531.59
2019-02-27T19:50:32.516Z,101523.73
2019-02-27T19:52:33.889Z,101515.95
2019-02-27T19:54:35.305Z,101513.23
2019-02-27T19:56:37.045Z,101510.22
2019-02-27T19:58:38.409Z,101511.25
2019-02-27T20:00:48.044Z,101511.07
2019-02-27T20:02:43.215Z,101513.41
2019-02-27T20:04:46.005Z,101512.20
2019-02-27T20:06:47.556Z,101507.59
2019-02-27T20:08:48.987Z,101499.06
2019-02-27T20:10:50.551Z,101501.90
2019-02-27T20:12:53.716Z,101497.64
2019-02-27T20:14:55.454Z,101495.18
2019-02-27T20:16:56.819Z,101484.22
2019-02-27T20:18:58.287Z,101483.80
2019-02-27T20:21:00.096Z,101478.74
2019-02-27T20:23:01.483Z,101480.33
2019-02-27T20:25:09.342Z,101480.52
2019-02-27T20:27:10.985Z,101474.30
2019-02-27T20:29:12.347Z,101475.27
2019-02-27T20:31:17.931Z,101471.40
2019-02-27T20:33:17.012Z,101467.50
2019-02-27T20:35:20.814Z,101457.97
2019-02-27T20:37:22.100Z,101456.98
2019-02-27T20:39:24.433Z,101451.97
2019-02-27T20:41:26.075Z,101450.02
2019-02-27T20:43:29.451Z,101439.63
2019-02-27T20:45:30.695Z,101440.29
2019-02-27T20:47:32.233Z,101438.77
2019-02-27T20:49:33.606Z,101436.84
2019-02-27T20:51:39.743Z,101437.75
2019-02-27T20:53:38.293Z,101426.02
2019-02-27T20:55:39.635Z,101426.56
2019-02-27T20:57:42.279Z,101425.00
2019-02-27T20:59:44.320Z,101424.50
2019-02-27T21:01:47.328Z,101420.84
2019-02-27T21:03:48.910Z,101419.89
2019-02-27T21:05:50.373Z,101417.56
2019-02-27T21:07:51.746Z,101416.66
2019-02-27T21:09:53.096Z,101416.30
2019-02-27T21:11:54.536Z,101411.50
2019-02-27T21:13:55.882Z,101401.23
2019-02-27T21:15:57.248Z,101403.18
2019-02-27T21:17:58.855Z,101392.67
2019-02-27T21:20:00.454Z,101390.82
2019-02-27T21:22:01.790Z,101388.31
2019-02-27T21:24:06.229Z,101381.95
2019-02-27T21:26:06.626Z,101383.81
2019-02-27T21:28:08.025Z,101377.23
2019-02-27T21:30:21.934Z,101376.62
2019-02-27T21:32:23.264Z,101375.73
2019-02-27T21:34:24.721Z,101365.36
2019-02-27T21:36:26.233Z,101364.81
2019-02-27T21:38:27.577Z,101362.96
2019-02-27T21:40:28.989Z,101358.49
2019-02-27T21:42:32.652Z,101358.33
2019-02-27T21:44:33.733Z,101351.38
2019-02-27T21:46:35.104Z,101349.30
2019-02-27T21:48:36.463Z,101345.29
2019-02-27T21:50:39.934Z,101347.51
2019-02-27T21:52:41.233Z,101341.53
2019-02-27T21:54:42.626Z,101339.69
2019-02-27T21:56:44.022Z,101331.23
2019-02-27T21:58:45.504Z,101324.39
2019-02-27T22:00:48.181Z,101324.67
2019-02-27T22:02:52.780Z,101325.85
2019-02-27T22:04:54.148Z,101325.75
2019-02-27T22:06:58.413Z,101319.77
2019-02-27T22:08:58.816Z,101317.53
2019-02-27T22:11:00.175Z,101318.00
2019-02-27T22:13:01.548Z,101312.62
2019-02-27T22:15:09.641Z,101307.20
2019-02-27T22:17:11.008Z,101300.34
2019-02-27T22:19:12.546Z,101297.34
2019-02-27T22:21:14.334Z,101292.38
2019-02-27T22:23:15.789Z,101289.27
2019-02-27T22:25:17.176Z,101283.55
2019-02-27T22:27:18.567Z,101278.92
2019-02-27T22:29:20.287Z,101275.88
2019-02-27T22:31:21.653Z,101271.95
2019-02-27T22:33:23.181Z,101275.06
2019-02-27T22:35:24.613Z,101263.23
2019-02-27T22:37:26.039Z,101262.61
2019-02-27T22:39:27.399Z,101265.09
2019-02-27T22:41:28.787Z,101267.91
2019-02-27T22:43:30.177Z,101258.59
2019-02-27T22:45:31.539Z,101259.80
2019-02-27T22:47:32.893Z,101257.42
2019-02-27T22:49:34.290Z,101248.67
2019-02-27T22:51:35.695Z,101256.59
2019-02-27T22:53:37.079Z,101254.44
2019-02-27T22:55:38.555Z,101255.73
2019-02-27T22:57:39.898Z,101247.64
2019-02-27T22:59:41.272Z,101247.16
2019-02-27T23:01:49.248Z,101247.00
2019-02-27T23:03:54.987Z,101239.20
2019-02-27T23:05:56.868Z,101234.81
2019-02-27T23:07:58.531Z,101238.78
2019-02-27T23:09:59.999Z,101233.48
2019-02-27T23:12:01.464Z,101227.87
2019-02-27T23:14:03.253Z,101226.50
2019-02-27T23:16:04.674Z,101223.09
2019-02-27T23:18:06.838Z,101219.52
2019-02-27T23:20:08.541Z,101217.34
2019-02-27T23:22:09.953Z,101215.03
2019-02-27T23:24:11.376Z,101210.10
2019-02-27T23:26:12.740Z,101207.18
2019-02-27T23:28:14.157Z,101197.25
2019-02-27T23:30:16.154Z,101194.63